Barksdale Air Force Base

KBAD · 路易斯安那州, 美国

罗盘
风向 的 风向 200° Barksdale Air Force Base 15/33
风向 到 风: 17 kt, 阵阵 25 kt, 5 beaufort

11 kt

13 kt
改变
0 ft 1.000 2.000 3.000 4.000 5.000
Cloud Cloud Cloud Cloud
SCT 2.400
METAR KDTN 271614Z 20017G25KT 10SM SCT024 23/17 A2979 RMK AO2 PK WND 21026/1555 T02280167

METAR Barksdale Air Force Base - KBAD/BAD

Barksdale Air Force Base是,美国中的中型机场。 该机场位于纬度32,50193和经度-93,66263。 该机场有一条跑道: 15/33. 本场的ICAO机场代码为KBAD。 该机场的本地机场标识(FAA LID)为BAD。 该机场的IATA代码为BAD。 机场在Ft Worth FIR中。

该航空气象观测是针对Shreveport Downtown Airport在2024年2月27日 10:14, 当地时间进行的。

机场观察

风向为200°,速度为17 kt。 已测得25 kt的阵风。

可见度为10 mi。

有疏云,零星散落的云朵在2.400 ft的高度。 没有观察到天花板。

温度和风寒是23 °C。 露点为17 °C,相对湿度为69%。 海平面上的气压为29,79 inHg (QNH)。

白天

今天,太阳从06:44升起,在18:10降落。 这适用于Barksdale Air Force Base,世界夏令时可能有所不同。 当地时间与世界标准时间之间的时差为-6 小时。 当前,没有夏令时有效。

公司介绍

我们没有关于这个机场的公司信息。

体会

到Vliegles.nl去找飞行课程,跳伞和其他飞行体验。 浏览页面,了解Barksdale Air Force Base附近所有可用的活动。 你也可以使用搜索功能来寻找你所在地附近的特定飞行课程、跳伞或其他飞行体验。

跑道

Id 标题 侧风 逆风 侧风 %
15/33 151°-331° 13-19 kt 11-16 kt 75 %

逆风成分最大的方向会被突出显示,并用于横风计算。 这并不一定意味着这个方向在使用。

乌云

2.400 ft SCT 疏云,零星散落的云朵

温度 & 天气

温度 22,8 °C
露点 16,7 °C
相对湿度 69%
Kp-index 0 (0-9)

评论

AO2自动气象站,可确定降水类型
PK WND 21026/1555峰值风来自210°,26 kt在15 :55 UTC。
T02280167温度为22,8 °C (73,0 °F),露点为16,7 °C (62,1 °F)

白天

日出
06:45
中午
12:27
日落
18:10 (7:36)

小工具

你想在你的网站上有一个关于Barksdale Air Force Base的当前航空天气(METAR)的小部件吗?

显示HTML代码
?>